sensor_id;sensor_type;location;lat;lon;timestamp;P1;durP1;ratioP1;P2;durP2;ratioP2
19183;SDS011;9724;51.194;6.856;2023-07-31T00:00:16;10.73;;;4.17;;
19183;SDS011;9724;51.194;6.856;2023-07-31T00:02:43;11.60;;;4.10;;
19183;SDS011;9724;51.194;6.856;2023-07-31T00:05:09;8.17;;;3.90;;
19183;SDS011;9724;51.194;6.856;2023-07-31T00:07:35;12.07;;;5.07;;
19183;SDS011;9724;51.194;6.856;2023-07-31T00:10:02;13.40;;;4.20;;
19183;SDS011;9724;51.194;6.856;2023-07-31T00:12:29;15.90;;;4.50;;
19183;SDS011;9724;51.194;6.856;2023-07-31T00:14:56;8.60;;;3.87;;
19183;SDS011;9724;51.194;6.856;2023-07-31T00:17:22;7.80;;;3.33;;
19183;SDS011;9724;51.194;6.856;2023-07-31T00:19:48;12.20;;;4.10;;
19183;SDS011;9724;51.194;6.856;2023-07-31T00:22:16;8.07;;;3.77;;
19183;SDS011;9724;51.194;6.856;2023-07-31T00:24:42;8.63;;;3.80;;
19183;SDS011;9724;51.194;6.856;2023-07-31T00:27:09;8.57;;;3.77;;
19183;SDS011;9724;51.194;6.856;2023-07-31T00:29:35;11.47;;;3.90;;
19183;SDS011;9724;51.194;6.856;2023-07-31T00:32:03;10.37;;;3.63;;
19183;SDS011;9724;51.194;6.856;2023-07-31T00:34:29;14.00;;;3.90;;
19183;SDS011;9724;51.194;6.856;2023-07-31T00:36:56;13.40;;;4.37;;
19183;SDS011;9724;51.194;6.856;2023-07-31T00:39:22;10.83;;;4.20;;
19183;SDS011;9724;51.194;6.856;2023-07-31T00:41:49;12.17;;;4.10;;
19183;SDS011;9724;51.194;6.856;2023-07-31T00:44:15;12.20;;;4.17;;
19183;SDS011;9724;51.194;6.856;2023-07-31T00:46:41;9.47;;;4.10;;
19183;SDS011;9724;51.194;6.856;2023-07-31T00:49:09;7.60;;;4.00;;
19183;SDS011;9724;51.194;6.856;2023-07-31T00:51:36;13.03;;;3.97;;
19183;SDS011;9724;51.194;6.856;2023-07-31T00:54:02;9.27;;;4.07;;
19183;SDS011;9724;51.194;6.856;2023-07-31T00:56:29;10.97;;;4.20;;
19183;SDS011;9724;51.194;6.856;2023-07-31T00:58:55;11.60;;;3.83;;
19183;SDS011;9724;51.194;6.856;2023-07-31T01:01:22;12.10;;;4.07;;
19183;SDS011;9724;51.194;6.856;2023-07-31T01:03:48;11.47;;;3.33;;
19183;SDS011;9724;51.194;6.856;2023-07-31T01:06:19;10.93;;;4.50;;
19183;SDS011;9724;51.194;6.856;2023-07-31T01:08:54;8.07;;;3.70;;
19183;SDS011;9724;51.194;6.856;2023-07-31T01:11:25;11.30;;;3.80;;
19183;SDS011;9724;51.194;6.856;2023-07-31T01:13:53;11.93;;;3.87;;
19183;SDS011;9724;51.194;6.856;2023-07-31T01:16:20;13.03;;;3.87;;
19183;SDS011;9724;51.194;6.856;2023-07-31T01:18:46;16.00;;;3.90;;
19183;SDS011;9724;51.194;6.856;2023-07-31T01:21:19;10.77;;;3.37;;
19183;SDS011;9724;51.194;6.856;2023-07-31T01:26:56;7.33;;;3.30;;
19183;SDS011;9724;51.194;6.856;2023-07-31T01:29:26;8.77;;;3.50;;
19183;SDS011;9724;51.194;6.856;2023-07-31T01:31:56;8.70;;;3.33;;
19183;SDS011;9724;51.194;6.856;2023-07-31T01:34:22;17.17;;;4.33;;
19183;SDS011;9724;51.194;6.856;2023-07-31T01:36:49;11.07;;;3.83;;
19183;SDS011;9724;51.194;6.856;2023-07-31T01:39:15;14.60;;;4.50;;
19183;SDS011;9724;51.194;6.856;2023-07-31T01:41:43;8.20;;;4.00;;
19183;SDS011;9724;51.194;6.856;2023-07-31T01:44:11;10.80;;;3.60;;
19183;SDS011;9724;51.194;6.856;2023-07-31T01:46:37;14.33;;;3.87;;
19183;SDS011;9724;51.194;6.856;2023-07-31T01:49:05;17.83;;;4.23;;
19183;SDS011;9724;51.194;6.856;2023-07-31T01:51:31;9.87;;;3.43;;
19183;SDS011;9724;51.194;6.856;2023-07-31T01:53:59;7.77;;;3.40;;
19183;SDS011;9724;51.194;6.856;2023-07-31T01:56:26;8.93;;;3.97;;
19183;SDS011;9724;51.194;6.856;2023-07-31T01:58:52;16.70;;;4.80;;
19183;SDS011;9724;51.194;6.856;2023-07-31T02:01:20;12.07;;;3.90;;
19183;SDS011;9724;51.194;6.856;2023-07-31T02:03:46;16.23;;;4.00;;
19183;SDS011;9724;51.194;6.856;2023-07-31T02:06:13;12.70;;;4.00;;
19183;SDS011;9724;51.194;6.856;2023-07-31T02:08:39;10.77;;;4.40;;
19183;SDS011;9724;51.194;6.856;2023-07-31T02:11:05;9.50;;;3.77;;
19183;SDS011;9724;51.194;6.856;2023-07-31T02:13:32;14.83;;;4.07;;
19183;SDS011;9724;51.194;6.856;2023-07-31T02:15:58;14.03;;;3.53;;
19183;SDS011;9724;51.194;6.856;2023-07-31T02:18:25;14.40;;;3.93;;
19183;SDS011;9724;51.194;6.856;2023-07-31T02:20:52;9.93;;;3.87;;
19183;SDS011;9724;51.194;6.856;2023-07-31T02:23:18;11.07;;;4.07;;
19183;SDS011;9724;51.194;6.856;2023-07-31T02:25:45;14.97;;;4.20;;
19183;SDS011;9724;51.194;6.856;2023-07-31T02:28:12;12.83;;;4.37;;
19183;SDS011;9724;51.194;6.856;2023-07-31T02:30:38;14.47;;;4.10;;
19183;SDS011;9724;51.194;6.856;2023-07-31T02:33:06;15.07;;;3.80;;
19183;SDS011;9724;51.194;6.856;2023-07-31T02:35:33;12.07;;;4.10;;
19183;SDS011;9724;51.194;6.856;2023-07-31T02:38:00;11.70;;;3.90;;
19183;SDS011;9724;51.194;6.856;2023-07-31T02:40:26;12.30;;;3.87;;
19183;SDS011;9724;51.194;6.856;2023-07-31T02:42:52;12.03;;;4.67;;
19183;SDS011;9724;51.194;6.856;2023-07-31T02:45:18;9.63;;;4.60;;
19183;SDS011;9724;51.194;6.856;2023-07-31T02:47:45;16.13;;;4.23;;
19183;SDS011;9724;51.194;6.856;2023-07-31T02:50:11;22.20;;;4.30;;
19183;SDS011;9724;51.194;6.856;2023-07-31T02:52:38;14.33;;;4.67;;
19183;SDS011;9724;51.194;6.856;2023-07-31T02:55:05;13.37;;;4.50;;
19183;SDS011;9724;51.194;6.856;2023-07-31T02:57:32;20.53;;;4.50;;
19183;SDS011;9724;51.194;6.856;2023-07-31T02:59:58;13.83;;;5.13;;
19183;SDS011;9724;51.194;6.856;2023-07-31T03:02:24;9.97;;;4.37;;
19183;SDS011;9724;51.194;6.856;2023-07-31T03:04:51;14.27;;;4.57;;
19183;SDS011;9724;51.194;6.856;2023-07-31T03:07:18;17.60;;;4.30;;
19183;SDS011;9724;51.194;6.856;2023-07-31T03:09:45;13.23;;;4.33;;
19183;SDS011;9724;51.194;6.856;2023-07-31T03:12:11;12.43;;;3.90;;
19183;SDS011;9724;51.194;6.856;2023-07-31T03:14:37;12.13;;;4.93;;
19183;SDS011;9724;51.194;6.856;2023-07-31T03:17:04;13.90;;;5.07;;
19183;SDS011;9724;51.194;6.856;2023-07-31T03:19:31;16.23;;;4.40;;
19183;SDS011;9724;51.194;6.856;2023-07-31T03:21:57;11.70;;;4.20;;
19183;SDS011;9724;51.194;6.856;2023-07-31T03:24:24;16.83;;;4.67;;
19183;SDS011;9724;51.194;6.856;2023-07-31T03:26:51;12.33;;;4.83;;
19183;SDS011;9724;51.194;6.856;2023-07-31T03:29:17;10.10;;;4.70;;
19183;SDS011;9724;51.194;6.856;2023-07-31T03:31:44;18.23;;;4.80;;
19183;SDS011;9724;51.194;6.856;2023-07-31T03:34:10;15.23;;;4.27;;
19183;SDS011;9724;51.194;6.856;2023-07-31T03:36:37;12.27;;;4.40;;
19183;SDS011;9724;51.194;6.856;2023-07-31T03:39:04;9.73;;;3.97;;
19183;SDS011;9724;51.194;6.856;2023-07-31T03:41:30;18.27;;;5.30;;
19183;SDS011;9724;51.194;6.856;2023-07-31T03:43:57;11.17;;;4.40;;
19183;SDS011;9724;51.194;6.856;2023-07-31T03:46:23;12.90;;;4.43;;
19183;SDS011;9724;51.194;6.856;2023-07-31T03:48:50;9.37;;;3.80;;
19183;SDS011;9724;51.194;6.856;2023-07-31T03:51:16;9.93;;;4.03;;
19183;SDS011;9724;51.194;6.856;2023-07-31T03:53:43;10.53;;;3.90;;
19183;SDS011;9724;51.194;6.856;2023-07-31T03:56:10;14.27;;;4.07;;
19183;SDS011;9724;51.194;6.856;2023-07-31T03:58:36;14.27;;;4.17;;
19183;SDS011;9724;51.194;6.856;2023-07-31T04:01:03;11.87;;;4.07;;
19183;SDS011;9724;51.194;6.856;2023-07-31T04:03:32;8.47;;;3.80;;
19183;SDS011;9724;51.194;6.856;2023-07-31T04:05:58;12.33;;;4.53;;
19183;SDS011;9724;51.194;6.856;2023-07-31T04:08:24;13.63;;;4.43;;
19183;SDS011;9724;51.194;6.856;2023-07-31T04:10:51;13.53;;;4.17;;
19183;SDS011;9724;51.194;6.856;2023-07-31T04:13:17;14.73;;;4.37;;
19183;SDS011;9724;51.194;6.856;2023-07-31T04:15:47;12.70;;;4.10;;
19183;SDS011;9724;51.194;6.856;2023-07-31T04:18:15;12.43;;;4.33;;
19183;SDS011;9724;51.194;6.856;2023-07-31T04:20:41;18.40;;;4.20;;
19183;SDS011;9724;51.194;6.856;2023-07-31T04:23:07;13.33;;;4.97;;
19183;SDS011;9724;51.194;6.856;2023-07-31T04:25:37;12.30;;;4.40;;
19183;SDS011;9724;51.194;6.856;2023-07-31T04:28:06;12.60;;;4.63;;
19183;SDS011;9724;51.194;6.856;2023-07-31T04:30:33;14.87;;;4.90;;
19183;SDS011;9724;51.194;6.856;2023-07-31T04:32:59;11.87;;;4.60;;
19183;SDS011;9724;51.194;6.856;2023-07-31T04:35:26;13.60;;;4.07;;
19183;SDS011;9724;51.194;6.856;2023-07-31T04:37:53;12.63;;;5.27;;
19183;SDS011;9724;51.194;6.856;2023-07-31T04:40:20;9.37;;;4.97;;
19183;SDS011;9724;51.194;6.856;2023-07-31T04:42:46;12.57;;;5.03;;
19183;SDS011;9724;51.194;6.856;2023-07-31T04:45:16;13.47;;;4.77;;
19183;SDS011;9724;51.194;6.856;2023-07-31T04:47:42;11.23;;;4.30;;
19183;SDS011;9724;51.194;6.856;2023-07-31T04:50:09;13.97;;;5.00;;
19183;SDS011;9724;51.194;6.856;2023-07-31T04:52:36;11.57;;;4.80;;
19183;SDS011;9724;51.194;6.856;2023-07-31T04:55:02;12.63;;;4.70;;
19183;SDS011;9724;51.194;6.856;2023-07-31T04:57:30;11.43;;;3.97;;
19183;SDS011;9724;51.194;6.856;2023-07-31T04:59:56;11.33;;;4.70;;
19183;SDS011;9724;51.194;6.856;2023-07-31T05:02:23;8.77;;;4.27;;
19183;SDS011;9724;51.194;6.856;2023-07-31T05:04:50;11.87;;;4.70;;
19183;SDS011;9724;51.194;6.856;2023-07-31T05:07:16;12.50;;;4.57;;
19183;SDS011;9724;51.194;6.856;2023-07-31T05:09:43;8.80;;;4.13;;
19183;SDS011;9724;51.194;6.856;2023-07-31T05:12:10;8.67;;;4.20;;
19183;SDS011;9724;51.194;6.856;2023-07-31T05:14:37;13.57;;;4.50;;
19183;SDS011;9724;51.194;6.856;2023-07-31T05:17:04;7.40;;;4.50;;
19183;SDS011;9724;51.194;6.856;2023-07-31T05:19:31;10.80;;;4.03;;
19183;SDS011;9724;51.194;6.856;2023-07-31T05:21:57;8.90;;;4.50;;
19183;SDS011;9724;51.194;6.856;2023-07-31T05:24:24;9.73;;;4.37;;
19183;SDS011;9724;51.194;6.856;2023-07-31T05:26:51;7.57;;;4.10;;
19183;SDS011;9724;51.194;6.856;2023-07-31T05:29:18;10.00;;;4.77;;
19183;SDS011;9724;51.194;6.856;2023-07-31T05:31:44;10.77;;;4.20;;
19183;SDS011;9724;51.194;6.856;2023-07-31T05:34:10;7.10;;;4.50;;
19183;SDS011;9724;51.194;6.856;2023-07-31T05:36:37;7.93;;;4.40;;
19183;SDS011;9724;51.194;6.856;2023-07-31T05:39:04;12.50;;;4.37;;
19183;SDS011;9724;51.194;6.856;2023-07-31T05:41:35;8.70;;;4.17;;
19183;SDS011;9724;51.194;6.856;2023-07-31T05:44:03;5.60;;;4.07;;
19183;SDS011;9724;51.194;6.856;2023-07-31T05:46:29;11.77;;;4.53;;
19183;SDS011;9724;51.194;6.856;2023-07-31T05:48:57;10.93;;;4.40;;
19183;SDS011;9724;51.194;6.856;2023-07-31T05:51:23;11.73;;;4.70;;
19183;SDS011;9724;51.194;6.856;2023-07-31T05:53:49;9.80;;;4.23;;
19183;SDS011;9724;51.194;6.856;2023-07-31T05:56:16;10.03;;;3.90;;
19183;SDS011;9724;51.194;6.856;2023-07-31T05:58:42;11.10;;;4.20;;
19183;SDS011;9724;51.194;6.856;2023-07-31T06:01:10;6.97;;;4.20;;
19183;SDS011;9724;51.194;6.856;2023-07-31T06:03:36;15.90;;;4.63;;
19183;SDS011;9724;51.194;6.856;2023-07-31T06:06:02;10.87;;;3.93;;
19183;SDS011;9724;51.194;6.856;2023-07-31T06:08:29;9.13;;;4.23;;
19183;SDS011;9724;51.194;6.856;2023-07-31T06:10:55;7.17;;;4.03;;
19183;SDS011;9724;51.194;6.856;2023-07-31T06:13:22;17.03;;;4.23;;
19183;SDS011;9724;51.194;6.856;2023-07-31T06:15:48;11.60;;;4.67;;
19183;SDS011;9724;51.194;6.856;2023-07-31T06:18:15;8.60;;;4.00;;
19183;SDS011;9724;51.194;6.856;2023-07-31T06:20:41;7.53;;;3.90;;
19183;SDS011;9724;51.194;6.856;2023-07-31T06:23:08;9.23;;;3.93;;
19183;SDS011;9724;51.194;6.856;2023-07-31T06:25:34;7.93;;;3.90;;
19183;SDS011;9724;51.194;6.856;2023-07-31T06:28:01;10.57;;;4.03;;
19183;SDS011;9724;51.194;6.856;2023-07-31T06:30:27;8.40;;;4.10;;
19183;SDS011;9724;51.194;6.856;2023-07-31T06:32:53;9.90;;;4.17;;
19183;SDS011;9724;51.194;6.856;2023-07-31T06:35:21;8.73;;;4.23;;
19183;SDS011;9724;51.194;6.856;2023-07-31T06:37:47;11.10;;;4.57;;
19183;SDS011;9724;51.194;6.856;2023-07-31T06:40:14;14.23;;;4.23;;
19183;SDS011;9724;51.194;6.856;2023-07-31T06:42:41;11.93;;;4.20;;
19183;SDS011;9724;51.194;6.856;2023-07-31T06:45:07;18.43;;;4.90;;
19183;SDS011;9724;51.194;6.856;2023-07-31T06:47:34;9.90;;;4.27;;
19183;SDS011;9724;51.194;6.856;2023-07-31T06:50:01;10.40;;;4.40;;
19183;SDS011;9724;51.194;6.856;2023-07-31T06:52:28;14.77;;;4.80;;
19183;SDS011;9724;51.194;6.856;2023-07-31T06:55:01;12.17;;;4.23;;
19183;SDS011;9724;51.194;6.856;2023-07-31T06:57:29;8.87;;;4.13;;
19183;SDS011;9724;51.194;6.856;2023-07-31T06:59:55;7.33;;;3.97;;
19183;SDS011;9724;51.194;6.856;2023-07-31T07:02:23;7.87;;;3.90;;
19183;SDS011;9724;51.194;6.856;2023-07-31T07:04:49;13.70;;;4.27;;
19183;SDS011;9724;51.194;6.856;2023-07-31T07:07:15;7.63;;;4.30;;
19183;SDS011;9724;51.194;6.856;2023-07-31T07:09:43;6.30;;;3.70;;
19183;SDS011;9724;51.194;6.856;2023-07-31T07:12:09;10.00;;;4.20;;
19183;SDS011;9724;51.194;6.856;2023-07-31T07:14:35;8.47;;;3.70;;
19183;SDS011;9724;51.194;6.856;2023-07-31T07:17:01;7.83;;;4.10;;
19183;SDS011;9724;51.194;6.856;2023-07-31T07:19:28;10.93;;;4.67;;
19183;SDS011;9724;51.194;6.856;2023-07-31T07:21:54;12.00;;;4.50;;
19183;SDS011;9724;51.194;6.856;2023-07-31T07:24:21;17.20;;;5.10;;
19183;SDS011;9724;51.194;6.856;2023-07-31T07:26:48;11.53;;;4.70;;
19183;SDS011;9724;51.194;6.856;2023-07-31T07:29:15;10.03;;;4.77;;
19183;SDS011;9724;51.194;6.856;2023-07-31T07:31:41;9.80;;;4.07;;
19183;SDS011;9724;51.194;6.856;2023-07-31T07:34:07;8.37;;;3.93;;
19183;SDS011;9724;51.194;6.856;2023-07-31T07:36:34;6.43;;;3.87;;
19183;SDS011;9724;51.194;6.856;2023-07-31T07:39:00;6.73;;;3.67;;
19183;SDS011;9724;51.194;6.856;2023-07-31T07:41:27;9.57;;;4.23;;
19183;SDS011;9724;51.194;6.856;2023-07-31T07:43:54;10.20;;;4.73;;
19183;SDS011;9724;51.194;6.856;2023-07-31T07:46:20;14.03;;;4.10;;
19183;SDS011;9724;51.194;6.856;2023-07-31T07:48:46;7.67;;;4.07;;
19183;SDS011;9724;51.194;6.856;2023-07-31T07:51:13;7.63;;;3.97;;
19183;SDS011;9724;51.194;6.856;2023-07-31T07:53:39;8.20;;;4.30;;
19183;SDS011;9724;51.194;6.856;2023-07-31T07:56:05;9.67;;;3.97;;
19183;SDS011;9724;51.194;6.856;2023-07-31T07:58:32;9.93;;;3.80;;
19183;SDS011;9724;51.194;6.856;2023-07-31T08:00:59;7.00;;;3.83;;
19183;SDS011;9724;51.194;6.856;2023-07-31T08:03:25;8.03;;;4.30;;
19183;SDS011;9724;51.194;6.856;2023-07-31T08:05:52;8.43;;;3.70;;
19183;SDS011;9724;51.194;6.856;2023-07-31T08:08:18;6.23;;;3.50;;
19183;SDS011;9724;51.194;6.856;2023-07-31T08:10:45;7.67;;;3.77;;
19183;SDS011;9724;51.194;6.856;2023-07-31T08:13:12;9.07;;;3.83;;
19183;SDS011;9724;51.194;6.856;2023-07-31T08:15:40;12.60;;;3.80;;
19183;SDS011;9724;51.194;6.856;2023-07-31T08:18:07;9.63;;;4.20;;
19183;SDS011;9724;51.194;6.856;2023-07-31T08:20:34;9.83;;;4.17;;
19183;SDS011;9724;51.194;6.856;2023-07-31T08:23:00;7.20;;;3.80;;
19183;SDS011;9724;51.194;6.856;2023-07-31T08:25:27;7.03;;;3.27;;
19183;SDS011;9724;51.194;6.856;2023-07-31T08:27:53;7.23;;;3.70;;
19183;SDS011;9724;51.194;6.856;2023-07-31T08:30:19;7.17;;;3.53;;
19183;SDS011;9724;51.194;6.856;2023-07-31T08:32:47;8.10;;;4.07;;
19183;SDS011;9724;51.194;6.856;2023-07-31T08:35:15;6.70;;;3.63;;
19183;SDS011;9724;51.194;6.856;2023-07-31T08:37:41;8.77;;;3.70;;
19183;SDS011;9724;51.194;6.856;2023-07-31T08:40:08;7.30;;;3.33;;
19183;SDS011;9724;51.194;6.856;2023-07-31T08:42:42;8.93;;;3.90;;
19183;SDS011;9724;51.194;6.856;2023-07-31T08:45:11;8.93;;;3.00;;
19183;SDS011;9724;51.194;6.856;2023-07-31T08:47:40;9.93;;;3.87;;
19183;SDS011;9724;51.194;6.856;2023-07-31T08:50:07;5.43;;;3.00;;
19183;SDS011;9724;51.194;6.856;2023-07-31T08:52:34;10.43;;;3.27;;
19183;SDS011;9724;51.194;6.856;2023-07-31T08:55:00;6.63;;;3.00;;
19183;SDS011;9724;51.194;6.856;2023-07-31T08:57:28;6.77;;;3.07;;
19183;SDS011;9724;51.194;6.856;2023-07-31T08:59:56;7.90;;;3.63;;
19183;SDS011;9724;51.194;6.856;2023-07-31T09:02:23;11.43;;;2.90;;
19183;SDS011;9724;51.194;6.856;2023-07-31T09:04:53;6.57;;;3.50;;
19183;SDS011;9724;51.194;6.856;2023-07-31T09:07:19;4.47;;;3.07;;
19183;SDS011;9724;51.194;6.856;2023-07-31T09:09:46;7.63;;;3.10;;
19183;SDS011;9724;51.194;6.856;2023-07-31T09:12:12;5.67;;;3.30;;
19183;SDS011;9724;51.194;6.856;2023-07-31T09:14:39;4.73;;;3.43;;
19183;SDS011;9724;51.194;6.856;2023-07-31T09:17:06;6.20;;;3.13;;
19183;SDS011;9724;51.194;6.856;2023-07-31T09:19:33;7.77;;;3.93;;
19183;SDS011;9724;51.194;6.856;2023-07-31T09:22:02;8.40;;;3.40;;
19183;SDS011;9724;51.194;6.856;2023-07-31T09:24:30;7.03;;;3.60;;
19183;SDS011;9724;51.194;6.856;2023-07-31T09:27:01;9.47;;;3.80;;
19183;SDS011;9724;51.194;6.856;2023-07-31T09:29:28;9.60;;;4.47;;
19183;SDS011;9724;51.194;6.856;2023-07-31T09:31:55;9.60;;;3.70;;
19183;SDS011;9724;51.194;6.856;2023-07-31T09:34:28;10.87;;;4.07;;
19183;SDS011;9724;51.194;6.856;2023-07-31T09:36:57;8.50;;;4.03;;
19183;SDS011;9724;51.194;6.856;2023-07-31T09:39:25;5.63;;;3.60;;
19183;SDS011;9724;51.194;6.856;2023-07-31T09:41:53;10.73;;;3.90;;
19183;SDS011;9724;51.194;6.856;2023-07-31T09:44:21;11.30;;;4.30;;
19183;SDS011;9724;51.194;6.856;2023-07-31T09:47:03;10.37;;;4.33;;
19183;SDS011;9724;51.194;6.856;2023-07-31T09:49:30;9.37;;;4.03;;
19183;SDS011;9724;51.194;6.856;2023-07-31T09:51:56;7.67;;;3.87;;
19183;SDS011;9724;51.194;6.856;2023-07-31T09:54:22;4.33;;;3.60;;
19183;SDS011;9724;51.194;6.856;2023-07-31T09:56:49;10.87;;;3.80;;
19183;SDS011;9724;51.194;6.856;2023-07-31T09:59:16;4.77;;;3.60;;
19183;SDS011;9724;51.194;6.856;2023-07-31T10:01:47;9.90;;;3.60;;
19183;SDS011;9724;51.194;6.856;2023-07-31T10:04:14;9.70;;;4.37;;
19183;SDS011;9724;51.194;6.856;2023-07-31T10:06:42;8.10;;;3.40;;
19183;SDS011;9724;51.194;6.856;2023-07-31T10:09:10;7.07;;;3.63;;
19183;SDS011;9724;51.194;6.856;2023-07-31T10:11:38;7.47;;;3.47;;
19183;SDS011;9724;51.194;6.856;2023-07-31T10:14:09;6.70;;;4.00;;
19183;SDS011;9724;51.194;6.856;2023-07-31T10:16:37;4.63;;;3.03;;
19183;SDS011;9724;51.194;6.856;2023-07-31T10:19:06;6.77;;;3.30;;
19183;SDS011;9724;51.194;6.856;2023-07-31T10:21:33;11.30;;;3.50;;
19183;SDS011;9724;51.194;6.856;2023-07-31T10:24:02;4.67;;;3.40;;
19183;SDS011;9724;51.194;6.856;2023-07-31T10:26:29;8.70;;;3.73;;
19183;SDS011;9724;51.194;6.856;2023-07-31T10:28:57;6.20;;;3.63;;
19183;SDS011;9724;51.194;6.856;2023-07-31T10:31:24;6.73;;;3.87;;
19183;SDS011;9724;51.194;6.856;2023-07-31T10:33:50;9.87;;;3.77;;
19183;SDS011;9724;51.194;6.856;2023-07-31T10:36:18;9.03;;;4.10;;
19183;SDS011;9724;51.194;6.856;2023-07-31T10:38:45;6.27;;;3.60;;
19183;SDS011;9724;51.194;6.856;2023-07-31T10:41:12;11.37;;;3.90;;
19183;SDS011;9724;51.194;6.856;2023-07-31T10:43:38;11.97;;;3.97;;
19183;SDS011;9724;51.194;6.856;2023-07-31T10:46:08;9.07;;;3.70;;
19183;SDS011;9724;51.194;6.856;2023-07-31T10:48:35;7.70;;;4.10;;
19183;SDS011;9724;51.194;6.856;2023-07-31T10:51:06;7.43;;;3.80;;
19183;SDS011;9724;51.194;6.856;2023-07-31T10:53:39;10.53;;;3.73;;
19183;SDS011;9724;51.194;6.856;2023-07-31T10:56:07;7.17;;;3.30;;
19183;SDS011;9724;51.194;6.856;2023-07-31T10:58:35;13.50;;;3.77;;
19183;SDS011;9724;51.194;6.856;2023-07-31T11:01:04;6.37;;;3.27;;
19183;SDS011;9724;51.194;6.856;2023-07-31T11:03:42;3.70;;;2.90;;
19183;SDS011;9724;51.194;6.856;2023-07-31T11:06:10;7.50;;;2.90;;
19183;SDS011;9724;51.194;6.856;2023-07-31T11:08:41;4.63;;;3.03;;
19183;SDS011;9724;51.194;6.856;2023-07-31T11:11:09;6.83;;;3.20;;
19183;SDS011;9724;51.194;6.856;2023-07-31T11:13:40;3.67;;;2.50;;
19183;SDS011;9724;51.194;6.856;2023-07-31T11:16:10;2.77;;;2.57;;
19183;SDS011;9724;51.194;6.856;2023-07-31T11:18:38;3.30;;;2.60;;
19183;SDS011;9724;51.194;6.856;2023-07-31T11:21:06;2.60;;;2.23;;
19183;SDS011;9724;51.194;6.856;2023-07-31T11:23:33;8.43;;;2.13;;
19183;SDS011;9724;51.194;6.856;2023-07-31T11:26:00;2.83;;;2.00;;
19183;SDS011;9724;51.194;6.856;2023-07-31T11:28:30;3.20;;;2.10;;
19183;SDS011;9724;51.194;6.856;2023-07-31T11:30:57;4.53;;;2.20;;
19183;SDS011;9724;51.194;6.856;2023-07-31T11:33:23;4.97;;;2.17;;
19183;SDS011;9724;51.194;6.856;2023-07-31T11:35:50;1.97;;;1.80;;
19183;SDS011;9724;51.194;6.856;2023-07-31T11:38:21;2.47;;;1.70;;
19183;SDS011;9724;51.194;6.856;2023-07-31T11:40:50;1.80;;;1.63;;
19183;SDS011;9724;51.194;6.856;2023-07-31T11:43:18;1.73;;;1.63;;
19183;SDS011;9724;51.194;6.856;2023-07-31T11:45:46;3.40;;;1.87;;
19183;SDS011;9724;51.194;6.856;2023-07-31T11:48:18;4.50;;;2.00;;
19183;SDS011;9724;51.194;6.856;2023-07-31T11:50:45;2.00;;;1.43;;
19183;SDS011;9724;51.194;6.856;2023-07-31T11:53:12;1.80;;;1.70;;
19183;SDS011;9724;51.194;6.856;2023-07-31T11:55:39;1.70;;;1.60;;
19183;SDS011;9724;51.194;6.856;2023-07-31T11:58:06;3.50;;;1.80;;
19183;SDS011;9724;51.194;6.856;2023-07-31T12:00:33;2.40;;;1.83;;
19183;SDS011;9724;51.194;6.856;2023-07-31T12:02:59;3.13;;;1.70;;
19183;SDS011;9724;51.194;6.856;2023-07-31T12:05:26;2.43;;;1.87;;
19183;SDS011;9724;51.194;6.856;2023-07-31T12:07:53;2.97;;;1.80;;
19183;SDS011;9724;51.194;6.856;2023-07-31T12:10:27;1.70;;;1.60;;
19183;SDS011;9724;51.194;6.856;2023-07-31T12:12:58;3.27;;;1.83;;
19183;SDS011;9724;51.194;6.856;2023-07-31T12:15:33;2.57;;;1.97;;
19183;SDS011;9724;51.194;6.856;2023-07-31T12:18:06;1.80;;;1.63;;
19183;SDS011;9724;51.194;6.856;2023-07-31T12:20:34;1.60;;;1.60;;
19183;SDS011;9724;51.194;6.856;2023-07-31T12:23:01;2.90;;;1.87;;
19183;SDS011;9724;51.194;6.856;2023-07-31T12:25:28;2.00;;;1.90;;
19183;SDS011;9724;51.194;6.856;2023-07-31T12:27:56;2.50;;;1.97;;
19183;SDS011;9724;51.194;6.856;2023-07-31T12:30:26;2.50;;;1.80;;
19183;SDS011;9724;51.194;6.856;2023-07-31T12:32:53;2.40;;;2.10;;
19183;SDS011;9724;51.194;6.856;2023-07-31T12:35:20;3.53;;;2.00;;
19183;SDS011;9724;51.194;6.856;2023-07-31T12:37:46;2.40;;;2.07;;
19183;SDS011;9724;51.194;6.856;2023-07-31T12:40:13;2.30;;;2.10;;
19183;SDS011;9724;51.194;6.856;2023-07-31T12:42:40;2.37;;;1.80;;
19183;SDS011;9724;51.194;6.856;2023-07-31T12:45:07;2.47;;;1.97;;
19183;SDS011;9724;51.194;6.856;2023-07-31T12:47:33;4.83;;;2.33;;
19183;SDS011;9724;51.194;6.856;2023-07-31T12:50:00;3.00;;;2.50;;
19183;SDS011;9724;51.194;6.856;2023-07-31T12:52:27;3.27;;;2.17;;
19183;SDS011;9724;51.194;6.856;2023-07-31T12:54:53;3.37;;;2.00;;
19183;SDS011;9724;51.194;6.856;2023-07-31T12:57:20;2.30;;;2.20;;
19183;SDS011;9724;51.194;6.856;2023-07-31T12:59:47;2.50;;;2.30;;
19183;SDS011;9724;51.194;6.856;2023-07-31T13:02:13;3.60;;;2.30;;
19183;SDS011;9724;51.194;6.856;2023-07-31T13:04:39;2.50;;;2.30;;
19183;SDS011;9724;51.194;6.856;2023-07-31T13:07:06;3.67;;;2.57;;
19183;SDS011;9724;51.194;6.856;2023-07-31T13:09:33;5.00;;;2.60;;
19183;SDS011;9724;51.194;6.856;2023-07-31T13:11:59;8.40;;;2.73;;
19183;SDS011;9724;51.194;6.856;2023-07-31T13:14:26;4.30;;;2.70;;
19183;SDS011;9724;51.194;6.856;2023-07-31T13:16:52;3.00;;;2.43;;
19183;SDS011;9724;51.194;6.856;2023-07-31T13:19:18;3.87;;;2.80;;
19183;SDS011;9724;51.194;6.856;2023-07-31T13:21:45;2.93;;;2.50;;
19183;SDS011;9724;51.194;6.856;2023-07-31T13:24:12;4.40;;;2.67;;
19183;SDS011;9724;51.194;6.856;2023-07-31T13:26:38;3.53;;;2.73;;
19183;SDS011;9724;51.194;6.856;2023-07-31T13:29:05;3.37;;;3.07;;
19183;SDS011;9724;51.194;6.856;2023-07-31T13:31:31;5.43;;;3.00;;
19183;SDS011;9724;51.194;6.856;2023-07-31T13:33:57;5.40;;;2.80;;
19183;SDS011;9724;51.194;6.856;2023-07-31T13:36:24;3.13;;;2.73;;
19183;SDS011;9724;51.194;6.856;2023-07-31T13:38:50;5.33;;;2.83;;
19183;SDS011;9724;51.194;6.856;2023-07-31T13:41:17;4.80;;;2.80;;
19183;SDS011;9724;51.194;6.856;2023-07-31T13:43:43;6.67;;;2.90;;
19183;SDS011;9724;51.194;6.856;2023-07-31T13:46:09;3.53;;;2.87;;
19183;SDS011;9724;51.194;6.856;2023-07-31T13:48:36;3.13;;;2.83;;
19183;SDS011;9724;51.194;6.856;2023-07-31T13:51:02;5.40;;;2.43;;
19183;SDS011;9724;51.194;6.856;2023-07-31T13:53:29;3.23;;;2.90;;
19183;SDS011;9724;51.194;6.856;2023-07-31T13:55:55;2.80;;;2.60;;
19183;SDS011;9724;51.194;6.856;2023-07-31T13:58:22;9.40;;;3.10;;
19183;SDS011;9724;51.194;6.856;2023-07-31T14:00:48;4.17;;;2.97;;
19183;SDS011;9724;51.194;6.856;2023-07-31T14:03:15;2.83;;;2.43;;
19183;SDS011;9724;51.194;6.856;2023-07-31T14:05:41;4.97;;;2.80;;
19183;SDS011;9724;51.194;6.856;2023-07-31T14:08:08;3.87;;;2.83;;
19183;SDS011;9724;51.194;6.856;2023-07-31T14:10:34;5.67;;;2.80;;
19183;SDS011;9724;51.194;6.856;2023-07-31T14:13:00;6.50;;;2.80;;
19183;SDS011;9724;51.194;6.856;2023-07-31T14:15:27;3.27;;;2.60;;
19183;SDS011;9724;51.194;6.856;2023-07-31T14:17:54;2.90;;;2.70;;
19183;SDS011;9724;51.194;6.856;2023-07-31T14:20:22;2.83;;;2.43;;
19183;SDS011;9724;51.194;6.856;2023-07-31T14:22:48;6.33;;;2.67;;
19183;SDS011;9724;51.194;6.856;2023-07-31T14:25:15;6.17;;;2.90;;
19183;SDS011;9724;51.194;6.856;2023-07-31T14:27:41;2.60;;;2.40;;
19183;SDS011;9724;51.194;6.856;2023-07-31T14:30:08;3.17;;;2.50;;
19183;SDS011;9724;51.194;6.856;2023-07-31T14:32:35;5.57;;;2.80;;
19183;SDS011;9724;51.194;6.856;2023-07-31T14:35:02;4.70;;;2.87;;
19183;SDS011;9724;51.194;6.856;2023-07-31T14:37:36;3.30;;;2.57;;
19183;SDS011;9724;51.194;6.856;2023-07-31T14:40:03;4.27;;;2.97;;
19183;SDS011;9724;51.194;6.856;2023-07-31T14:42:30;8.93;;;2.77;;
19183;SDS011;9724;51.194;6.856;2023-07-31T14:44:56;3.43;;;2.90;;
19183;SDS011;9724;51.194;6.856;2023-07-31T14:47:22;8.27;;;3.40;;
19183;SDS011;9724;51.194;6.856;2023-07-31T14:49:49;4.43;;;2.97;;
19183;SDS011;9724;51.194;6.856;2023-07-31T14:52:15;3.97;;;3.03;;
19183;SDS011;9724;51.194;6.856;2023-07-31T14:54:42;5.03;;;3.20;;
19183;SDS011;9724;51.194;6.856;2023-07-31T14:57:08;5.73;;;3.90;;